createdAt,value
2018-10-06T00:00:11.698Z,11.17
2018-10-06T00:02:04.688Z,11.12
2018-10-06T00:03:04.743Z,11.19
2018-10-06T00:04:57.742Z,11.23
2018-10-06T00:05:57.795Z,11.23
2018-10-06T00:07:50.790Z,11.07
2018-10-06T00:08:50.841Z,11.17
2018-10-06T00:10:43.830Z,11.17
2018-10-06T00:11:43.881Z,11.12
2018-10-06T00:13:36.878Z,11.15
2018-10-06T00:14:36.932Z,11.18
2018-10-06T00:16:29.917Z,11.12
2018-10-06T00:17:29.973Z,11.10
2018-10-06T00:19:22.977Z,11.10
2018-10-06T00:20:23.029Z,11.02
2018-10-06T00:22:16.022Z,11.05
2018-10-06T00:23:16.098Z,11.07
2018-10-06T00:25:09.087Z,11.22
2018-10-06T00:26:09.138Z,11.26
2018-10-06T00:28:02.125Z,11.25
2018-10-06T00:29:02.185Z,11.19
2018-10-06T00:30:55.176Z,11.17
2018-10-06T00:31:55.229Z,11.25
2018-10-06T00:33:48.221Z,11.18
2018-10-06T00:34:48.274Z,11.12
2018-10-06T00:36:41.269Z,11.02
2018-10-06T00:37:41.329Z,10.97
2018-10-06T00:39:34.323Z,10.94
2018-10-06T00:40:34.372Z,10.90
2018-10-06T00:42:27.367Z,10.93
2018-10-06T00:43:27.422Z,10.89
2018-10-06T00:45:20.420Z,10.92
2018-10-06T00:46:20.471Z,10.94
2018-10-06T00:48:13.456Z,10.86
2018-10-06T00:49:13.518Z,10.84
2018-10-06T00:51:06.508Z,10.84
2018-10-06T00:52:06.562Z,10.81
2018-10-06T00:53:59.559Z,10.94
2018-10-06T00:54:59.612Z,11.00
2018-10-06T00:56:52.640Z,10.89
2018-10-06T00:57:52.701Z,10.89
2018-10-06T00:59:45.694Z,10.82
2018-10-06T01:00:45.746Z,10.81
2018-10-06T01:02:38.738Z,10.84
2018-10-06T01:03:38.793Z,10.72
2018-10-06T01:05:31.782Z,10.74
2018-10-06T01:06:31.834Z,10.72
2018-10-06T01:08:24.817Z,10.76
2018-10-06T01:09:24.881Z,10.72
2018-10-06T01:11:17.870Z,10.67
2018-10-06T01:12:17.920Z,10.63
2018-10-06T01:14:10.910Z,10.72
2018-10-06T01:15:10.968Z,10.71
2018-10-06T01:17:03.962Z,10.74
2018-10-06T01:18:04.061Z,10.67
2018-10-06T01:19:57.015Z,10.71
2018-10-06T01:20:57.058Z,10.71
2018-10-06T01:22:50.043Z,10.72
2018-10-06T01:23:50.101Z,10.68
2018-10-06T01:25:43.093Z,10.57
2018-10-06T01:26:43.141Z,10.59
2018-10-06T01:28:36.138Z,10.56
2018-10-06T01:29:36.199Z,10.53
2018-10-06T01:31:29.195Z,10.57
2018-10-06T01:32:29.247Z,10.57
2018-10-06T01:34:22.229Z,10.64
2018-10-06T01:35:22.289Z,10.60
2018-10-06T01:37:15.290Z,10.59
2018-10-06T01:38:15.340Z,10.51
2018-10-06T01:40:08.326Z,10.46
2018-10-06T01:41:08.385Z,10.41
2018-10-06T01:43:01.375Z,10.37
2018-10-06T01:44:01.425Z,10.46
2018-10-06T01:45:54.416Z,10.37
2018-10-06T01:46:54.469Z,10.41
2018-10-06T01:48:47.457Z,10.37
2018-10-06T01:49:47.522Z,10.26
2018-10-06T01:51:40.510Z,10.33
2018-10-06T01:52:40.560Z,10.37
2018-10-06T01:54:33.550Z,10.33
2018-10-06T01:55:33.606Z,10.33
2018-10-06T01:57:26.598Z,10.26
2018-10-06T01:58:26.645Z,10.25
2018-10-06T02:00:19.637Z,10.26
2018-10-06T02:01:19.695Z,10.17
2018-10-06T02:03:12.687Z,10.15
2018-10-06T02:04:12.736Z,10.16
2018-10-06T02:06:05.729Z,10.17
2018-10-06T02:07:05.781Z,10.22
2018-10-06T02:08:58.774Z,10.20
2018-10-06T02:09:58.828Z,10.15
2018-10-06T02:11:51.818Z,10.09
2018-10-06T02:12:51.865Z,10.19
2018-10-06T02:14:44.858Z,10.12
2018-10-06T02:15:44.916Z,10.12
2018-10-06T02:17:37.913Z,10.15
2018-10-06T02:18:37.968Z,10.17
2018-10-06T02:20:30.956Z,10.16
2018-10-06T02:21:31.015Z,10.17
2018-10-06T02:23:24.014Z,10.19
2018-10-06T02:24:24.065Z,10.19
2018-10-06T02:26:17.058Z,10.13
2018-10-06T02:27:17.115Z,10.09
2018-10-06T02:29:10.104Z,9.98
2018-10-06T02:30:10.242Z,10.05
2018-10-06T02:32:03.161Z,9.95
2018-10-06T02:33:03.200Z,9.87
2018-10-06T02:34:56.185Z,9.92
2018-10-06T02:35:56.245Z,9.99
2018-10-06T02:37:49.241Z,9.99
2018-10-06T02:38:49.284Z,9.98
2018-10-06T02:40:42.270Z,9.99
2018-10-06T02:41:42.325Z,10.07
2018-10-06T02:43:35.324Z,10.12
2018-10-06T02:44:35.380Z,9.99
2018-10-06T02:46:28.369Z,9.95
2018-10-06T02:47:28.425Z,9.86
2018-10-06T02:49:21.409Z,9.91
2018-10-06T02:50:21.470Z,9.94
2018-10-06T02:52:14.462Z,10.02
2018-10-06T02:53:14.515Z,9.91
2018-10-06T02:55:07.501Z,9.84
2018-10-06T02:56:07.557Z,9.80
2018-10-06T02:58:00.544Z,9.79
2018-10-06T02:59:00.598Z,9.66
2018-10-06T03:00:53.580Z,9.74
2018-10-06T03:01:53.643Z,9.73
2018-10-06T03:03:46.632Z,9.69
2018-10-06T03:04:46.683Z,9.73
2018-10-06T03:06:39.671Z,9.80
2018-10-06T03:07:39.752Z,9.80
2018-10-06T03:09:32.715Z,9.73
2018-10-06T03:10:32.775Z,9.66
2018-10-06T03:12:25.760Z,9.73
2018-10-06T03:13:25.812Z,9.58
2018-10-06T03:15:18.804Z,9.64
2018-10-06T03:16:18.854Z,9.62
2018-10-06T03:18:11.846Z,9.59
2018-10-06T03:19:11.900Z,9.56
2018-10-06T03:21:04.891Z,9.55
2018-10-06T03:22:04.948Z,9.54
2018-10-06T03:23:57.939Z,9.55
2018-10-06T03:24:57.991Z,9.48
2018-10-06T03:26:50.980Z,9.50
2018-10-06T03:27:51.030Z,9.58
2018-10-06T03:29:44.007Z,9.55
2018-10-06T03:30:44.066Z,9.58
2018-10-06T03:32:37.052Z,9.50
2018-10-06T03:33:37.105Z,9.58
2018-10-06T03:35:30.087Z,9.55
2018-10-06T03:36:30.142Z,9.39
2018-10-06T03:38:23.141Z,9.36
2018-10-06T03:39:23.182Z,9.46
2018-10-06T03:41:16.165Z,9.41
2018-10-06T03:42:16.221Z,9.32
2018-10-06T03:44:09.226Z,9.34
2018-10-06T03:45:09.276Z,9.28
2018-10-06T03:47:02.268Z,9.25
2018-10-06T03:48:02.328Z,9.23
2018-10-06T03:49:55.319Z,9.21
2018-10-06T03:50:55.367Z,9.25
2018-10-06T03:52:48.357Z,9.39
2018-10-06T03:53:48.415Z,9.25
2018-10-06T03:55:41.394Z,9.34
2018-10-06T03:56:41.451Z,9.43
2018-10-06T03:58:34.444Z,9.25
2018-10-06T03:59:34.498Z,9.29
2018-10-06T04:01:27.480Z,9.37
2018-10-06T04:02:27.536Z,9.28
2018-10-06T04:04:20.525Z,9.28
2018-10-06T04:05:20.577Z,9.34
2018-10-06T04:07:13.569Z,9.34
2018-10-06T04:08:13.622Z,9.34
2018-10-06T04:10:06.611Z,9.29
2018-10-06T04:11:06.662Z,9.29
2018-10-06T04:12:59.652Z,9.23
2018-10-06T04:13:59.704Z,9.14
2018-10-06T04:15:52.701Z,9.21
2018-10-06T04:16:52.754Z,9.18
2018-10-06T04:18:46.253Z,9.25
2018-10-06T04:19:46.302Z,9.25
2018-10-06T04:21:39.293Z,9.21
2018-10-06T04:22:39.350Z,9.21
2018-10-06T04:24:32.344Z,9.22
2018-10-06T04:25:32.391Z,9.21
2018-10-06T04:27:25.370Z,9.11
2018-10-06T04:28:25.505Z,9.08
2018-10-06T04:30:18.421Z,9.11
2018-10-06T04:31:18.474Z,9.11
2018-10-06T04:33:11.460Z,9.06
2018-10-06T04:34:11.518Z,9.08
2018-10-06T04:36:04.510Z,9.10
2018-10-06T04:37:04.560Z,9.02
2018-10-06T04:38:57.541Z,8.99
2018-10-06T04:39:57.598Z,9.04
2018-10-06T04:41:50.591Z,9.00
2018-10-06T04:42:50.638Z,9.02
2018-10-06T04:44:43.630Z,9.03
2018-10-06T04:45:43.686Z,9.00
2018-10-06T04:47:36.679Z,8.99
2018-10-06T04:48:36.738Z,9.04
2018-10-06T04:50:29.718Z,8.97
2018-10-06T04:51:29.771Z,9.02
2018-10-06T04:53:22.762Z,9.00
2018-10-06T04:54:22.816Z,8.92
2018-10-06T04:56:15.808Z,8.95
2018-10-06T04:57:15.858Z,8.92
2018-10-06T04:59:08.837Z,8.84
2018-10-06T05:00:08.895Z,8.84
2018-10-06T05:02:01.888Z,8.84
2018-10-06T05:03:01.941Z,8.82
2018-10-06T05:04:54.921Z,8.94
2018-10-06T05:05:54.981Z,8.92
2018-10-06T05:07:47.972Z,8.94
2018-10-06T05:08:48.022Z,8.91
2018-10-06T05:10:41.023Z,8.85
2018-10-06T05:11:41.062Z,8.81
2018-10-06T05:13:34.040Z,8.84
2018-10-06T05:14:34.099Z,8.79
2018-10-06T05:16:27.126Z,8.82
2018-10-06T05:17:27.173Z,8.87
2018-10-06T05:19:20.672Z,8.89
2018-10-06T05:20:20.727Z,8.94
2018-10-06T05:22:13.724Z,8.94
2018-10-06T05:23:13.772Z,8.99
2018-10-06T05:25:06.754Z,8.91
2018-10-06T05:26:06.812Z,8.81
2018-10-06T05:27:59.803Z,8.79
2018-10-06T05:28:59.852Z,8.84
2018-10-06T05:30:52.839Z,8.82
2018-10-06T05:31:52.901Z,8.81
2018-10-06T05:33:45.886Z,8.76
2018-10-06T05:34:45.937Z,8.76
2018-10-06T05:36:38.923Z,8.84
2018-10-06T05:37:38.979Z,8.82
2018-10-06T05:39:31.971Z,8.87
2018-10-06T05:40:32.022Z,8.82
2018-10-06T05:42:25.004Z,8.74
2018-10-06T05:43:25.054Z,8.82
2018-10-06T05:45:18.038Z,8.82
2018-10-06T05:46:18.140Z,8.84
2018-10-06T05:48:11.093Z,8.85
2018-10-06T05:49:11.149Z,8.84
2018-10-06T05:51:04.125Z,8.84
2018-10-06T05:52:04.189Z,8.81
2018-10-06T05:53:57.193Z,8.82
2018-10-06T05:54:57.238Z,8.82
2018-10-06T05:56:50.219Z,8.79
2018-10-06T05:57:50.282Z,8.79
2018-10-06T05:59:43.280Z,8.81
2018-10-06T06:00:43.328Z,8.84
2018-10-06T06:02:36.307Z,8.82
2018-10-06T06:03:36.367Z,8.82
2018-10-06T06:05:29.358Z,8.88
2018-10-06T06:06:29.406Z,9.06
2018-10-06T06:08:22.396Z,8.95
2018-10-06T06:09:22.516Z,8.99
2018-10-06T06:11:15.435Z,9.00
2018-10-06T06:12:15.491Z,9.00
2018-10-06T06:14:08.478Z,8.99
2018-10-06T06:15:08.530Z,9.02
2018-10-06T06:17:01.522Z,9.08
2018-10-06T06:18:01.586Z,9.06
2018-10-06T06:19:54.569Z,9.06
2018-10-06T06:20:54.618Z,9.22
2018-10-06T06:22:47.647Z,9.22
2018-10-06T06:23:47.664Z,9.23
2018-10-06T06:25:40.651Z,9.23
2018-10-06T06:26:40.730Z,9.25
2018-10-06T06:28:33.688Z,9.37
2018-10-06T06:29:33.746Z,9.39
2018-10-06T06:31:26.804Z,9.46
2018-10-06T06:32:26.793Z,9.48
2018-10-06T06:34:19.784Z,9.50
2018-10-06T06:35:19.833Z,9.59
2018-10-06T06:37:12.825Z,9.69
2018-10-06T06:38:12.901Z,9.74
2018-10-06T06:40:05.871Z,9.80
2018-10-06T06:41:05.917Z,9.87
2018-10-06T06:42:58.906Z,9.99
2018-10-06T06:43:58.987Z,10.01
2018-10-06T06:45:51.951Z,10.16
2018-10-06T06:46:52.002Z,10.22
2018-10-06T06:48:44.982Z,10.31
2018-10-06T06:49:45.040Z,10.35
2018-10-06T06:51:38.032Z,10.53
2018-10-06T06:52:38.082Z,10.67
2018-10-06T06:54:31.072Z,10.89
2018-10-06T06:55:31.128Z,11.08
2018-10-06T06:57:25.139Z,11.26
2018-10-06T06:58:25.190Z,11.41
2018-10-06T07:00:18.186Z,11.90
2018-10-06T07:01:18.236Z,12.04
2018-10-06T07:03:11.219Z,12.12
2018-10-06T07:04:11.277Z,11.95
2018-10-06T07:06:04.265Z,11.99
2018-10-06T07:07:04.316Z,11.94
2018-10-06T07:08:57.300Z,11.88
2018-10-06T07:09:57.357Z,11.87
2018-10-06T07:11:50.348Z,12.04
2018-10-06T07:12:50.404Z,12.21
2018-10-06T07:14:43.388Z,13.74
2018-10-06T07:15:43.445Z,15.06
2018-10-06T07:17:36.444Z,17.06
2018-10-06T07:18:36.511Z,17.90
2018-10-06T07:20:29.515Z,19.12
2018-10-06T07:21:29.542Z,19.67
2018-10-06T07:23:22.551Z,20.39
2018-10-06T07:24:22.617Z,20.74
2018-10-06T07:26:15.581Z,21.30
2018-10-06T07:27:15.634Z,21.42
2018-10-06T07:29:08.620Z,21.69
2018-10-06T07:30:08.683Z,21.98
2018-10-06T07:32:01.678Z,22.36
2018-10-06T07:33:01.739Z,22.47
2018-10-06T07:34:54.720Z,22.83
2018-10-06T07:35:54.785Z,22.96
2018-10-06T07:37:47.780Z,23.31
2018-10-06T07:38:47.838Z,23.15
2018-10-06T07:40:41.367Z,23.55
2018-10-06T07:41:41.403Z,23.62
2018-10-06T07:43:34.910Z,24.06
2018-10-06T07:44:34.964Z,24.36
2018-10-06T07:46:27.974Z,24.32
2018-10-06T07:47:28.032Z,24.29
2018-10-06T07:49:21.027Z,24.45
2018-10-06T07:50:21.092Z,24.45
2018-10-06T07:52:14.092Z,24.60
2018-10-06T07:53:14.164Z,24.77
2018-10-06T07:55:07.146Z,25.07
2018-10-06T07:56:07.207Z,25.04
2018-10-06T07:58:00.206Z,25.40
2018-10-06T07:59:00.265Z,25.72
2018-10-06T08:00:53.259Z,25.96
2018-10-06T08:01:53.335Z,25.98
2018-10-06T08:03:46.326Z,25.87
2018-10-06T08:04:46.386Z,25.98
2018-10-06T08:06:40.898Z,26.19
2018-10-06T08:07:40.958Z,26.28
2018-10-06T08:09:33.966Z,26.07
2018-10-06T08:10:34.028Z,26.21
2018-10-06T08:12:27.029Z,26.60
2018-10-06T08:13:27.090Z,26.63
2018-10-06T08:15:20.085Z,26.88
2018-10-06T08:16:20.152Z,26.75
2018-10-06T08:18:13.165Z,26.74
2018-10-06T08:19:13.215Z,26.74
2018-10-06T08:21:06.223Z,26.60
2018-10-06T08:22:06.277Z,26.74
2018-10-06T08:23:59.293Z,26.52
2018-10-06T08:24:59.352Z,26.63
2018-10-06T08:26:52.348Z,26.26
2018-10-06T08:27:52.417Z,26.25
2018-10-06T08:29:45.417Z,26.38
2018-10-06T08:30:45.475Z,26.60
2018-10-06T08:32:38.503Z,26.74
2018-10-06T08:33:38.555Z,26.51
2018-10-06T08:35:31.552Z,25.84
2018-10-06T08:36:31.629Z,25.46
2018-10-06T08:38:25.142Z,24.78
2018-10-06T08:39:25.205Z,24.89
2018-10-06T08:41:18.192Z,24.14
2018-10-06T08:42:18.261Z,23.66
2018-10-06T08:44:11.273Z,22.04
2018-10-06T08:45:11.333Z,21.20
2018-10-06T08:47:04.330Z,20.52
2018-10-06T08:48:04.396Z,20.40
2018-10-06T08:49:57.464Z,20.09
2018-10-06T08:50:57.462Z,20.06
2018-10-06T08:52:50.469Z,19.81
2018-10-06T08:53:50.519Z,19.82
2018-10-06T08:55:43.518Z,19.88
2018-10-06T08:56:43.625Z,19.71
2018-10-06T08:58:36.589Z,19.63
2018-10-06T08:59:36.645Z,19.71
2018-10-06T09:01:29.645Z,19.56
2018-10-06T09:02:29.709Z,19.44
2018-10-06T09:04:22.771Z,19.55
2018-10-06T09:05:22.765Z,19.51
2018-10-06T09:07:15.762Z,19.73
2018-10-06T09:08:15.827Z,19.54
2018-10-06T09:10:08.825Z,19.56
2018-10-06T09:11:08.883Z,19.54
2018-10-06T09:13:01.888Z,19.79
2018-10-06T09:14:01.947Z,19.81
2018-10-06T09:15:54.977Z,19.71
2018-10-06T09:16:55.017Z,19.71
2018-10-06T09:18:48.006Z,19.89
2018-10-06T09:19:48.089Z,19.95
2018-10-06T09:21:41.051Z,19.95
2018-10-06T09:22:41.114Z,19.95
2018-10-06T09:24:34.117Z,20.03
2018-10-06T09:25:34.177Z,20.06
2018-10-06T09:27:27.170Z,20.31
2018-10-06T09:28:27.230Z,20.31
2018-10-06T09:30:20.226Z,20.51
2018-10-06T09:31:20.285Z,20.60
2018-10-06T09:33:13.274Z,20.41
2018-10-06T09:34:13.337Z,20.47
2018-10-06T09:36:06.337Z,20.65
2018-10-06T09:37:06.393Z,20.69
2018-10-06T09:38:59.395Z,20.66
2018-10-06T09:39:59.455Z,20.67
2018-10-06T09:41:52.455Z,20.62
2018-10-06T09:42:52.576Z,20.67
2018-10-06T09:44:45.502Z,20.87
2018-10-06T09:45:45.558Z,21.02
2018-10-06T09:47:38.558Z,20.88
2018-10-06T09:48:38.614Z,20.96
2018-10-06T09:50:31.615Z,21.18
2018-10-06T09:51:31.670Z,21.21
2018-10-06T09:53:24.659Z,21.35
2018-10-06T09:54:24.724Z,21.40
2018-10-06T09:56:17.724Z,21.39
2018-10-06T09:57:17.778Z,21.43
2018-10-06T09:59:10.778Z,21.36
2018-10-06T10:00:10.840Z,21.39
2018-10-06T10:02:03.833Z,21.54
2018-10-06T10:03:03.899Z,21.54
2018-10-06T10:04:56.890Z,21.73
2018-10-06T10:05:56.982Z,21.76
2018-10-06T10:07:49.947Z,21.95
2018-10-06T10:08:50.005Z,21.98
2018-10-06T10:10:43.005Z,22.06
2018-10-06T10:11:43.069Z,22.04
2018-10-06T10:13:36.111Z,22.15
2018-10-06T10:14:36.175Z,22.14
2018-10-06T10:16:29.177Z,22.06
2018-10-06T10:17:29.376Z,21.96
2018-10-06T10:19:22.227Z,21.98
2018-10-06T10:20:22.302Z,21.98
2018-10-06T10:22:15.366Z,22.15
2018-10-06T10:23:15.612Z,22.17
2018-10-06T10:25:08.362Z,22.30
2018-10-06T10:26:08.407Z,22.50
2018-10-06T10:28:01.404Z,22.51
2018-10-06T10:29:01.613Z,22.54
2018-10-06T10:30:54.465Z,22.54
2018-10-06T10:31:54.527Z,22.63
2018-10-06T10:33:48.027Z,22.70
2018-10-06T10:34:48.086Z,22.76
2018-10-06T10:36:41.122Z,22.96
2018-10-06T10:37:41.151Z,22.84
2018-10-06T10:39:34.394Z,22.76
2018-10-06T10:40:34.206Z,22.90
2018-10-06T10:42:27.206Z,22.72
2018-10-06T10:43:27.262Z,22.68
2018-10-06T10:45:20.259Z,22.81
2018-10-06T10:46:20.323Z,22.91
2018-10-06T10:48:13.364Z,22.91
2018-10-06T10:49:13.382Z,22.88
2018-10-06T10:51:06.423Z,22.96
2018-10-06T10:52:06.469Z,22.99
2018-10-06T10:53:59.462Z,22.90
2018-10-06T10:54:59.524Z,22.99
2018-10-06T10:56:52.525Z,23.24
2018-10-06T10:57:52.621Z,23.24
2018-10-06T10:59:45.751Z,23.34
2018-10-06T11:00:45.826Z,23.36
2018-10-06T11:02:38.641Z,23.37
2018-10-06T11:03:38.697Z,23.48
2018-10-06T11:05:31.688Z,23.58
2018-10-06T11:06:31.754Z,23.41
2018-10-06T11:08:24.756Z,23.44
2018-10-06T11:09:24.820Z,23.46
2018-10-06T11:11:17.819Z,23.62
2018-10-06T11:12:17.865Z,23.66
2018-10-06T11:14:10.871Z,23.65
2018-10-06T11:15:10.926Z,23.80
2018-10-06T11:17:03.936Z,23.81
2018-10-06T11:18:03.989Z,23.83
2018-10-06T11:19:56.981Z,23.80
2018-10-06T11:20:57.044Z,23.78
2018-10-06T11:22:50.042Z,23.78
2018-10-06T11:23:50.101Z,23.68
2018-10-06T11:25:43.120Z,23.84
2018-10-06T11:26:43.161Z,23.86
2018-10-06T11:28:36.162Z,23.87
2018-10-06T11:29:36.226Z,23.95
2018-10-06T11:31:29.223Z,23.95
2018-10-06T11:32:29.279Z,24.05
2018-10-06T11:34:22.278Z,24.11
2018-10-06T11:35:22.334Z,24.05
2018-10-06T11:37:15.384Z,24.20
2018-10-06T11:38:15.449Z,24.23
2018-10-06T11:40:08.397Z,24.16
2018-10-06T11:41:08.456Z,24.18
2018-10-06T11:43:01.450Z,24.05
2018-10-06T11:44:01.513Z,24.11
2018-10-06T11:45:54.514Z,24.01
2018-10-06T11:46:54.571Z,24.05
2018-10-06T11:48:47.571Z,24.01
2018-10-06T11:49:47.666Z,24.05
2018-10-06T11:51:40.666Z,24.10
2018-10-06T11:52:40.689Z,24.11
2018-10-06T11:54:33.692Z,24.18
2018-10-06T11:55:33.754Z,24.21
2018-10-06T11:57:26.743Z,24.02
2018-10-06T11:58:26.808Z,23.98
2018-10-06T12:00:20.045Z,24.10
2018-10-06T12:01:19.879Z,24.06
2018-10-06T12:03:12.861Z,24.10
2018-10-06T12:04:12.925Z,24.14
2018-10-06T12:06:05.922Z,24.18
2018-10-06T12:07:05.981Z,24.24
2018-10-06T12:08:58.985Z,24.39
2018-10-06T12:09:59.043Z,24.47
2018-10-06T12:11:52.036Z,24.24
2018-10-06T12:12:52.099Z,24.16
2018-10-06T12:14:45.107Z,24.20
2018-10-06T12:15:45.173Z,24.20
2018-10-06T12:17:38.166Z,24.24
2018-10-06T12:18:38.229Z,24.29
2018-10-06T12:20:31.279Z,24.38
2018-10-06T12:21:31.292Z,24.43
2018-10-06T12:23:24.292Z,24.40
2018-10-06T12:24:24.353Z,24.35
2018-10-06T12:26:17.356Z,24.30
2018-10-06T12:27:17.412Z,24.35
2018-10-06T12:29:10.417Z,24.29
2018-10-06T12:30:10.478Z,24.36
2018-10-06T12:32:03.480Z,24.48
2018-10-06T12:33:03.538Z,24.53
2018-10-06T12:34:56.683Z,24.54
2018-10-06T12:35:56.598Z,24.51
2018-10-06T12:37:49.602Z,24.54
2018-10-06T12:38:49.661Z,24.65
2018-10-06T12:40:42.662Z,24.54
2018-10-06T12:41:42.720Z,24.58
2018-10-06T12:43:35.723Z,24.68
2018-10-06T12:44:35.781Z,24.55
2018-10-06T12:46:28.785Z,24.68
2018-10-06T12:47:28.845Z,24.63
2018-10-06T12:49:21.841Z,24.63
2018-10-06T12:50:21.906Z,24.63
2018-10-06T12:52:14.920Z,24.66
2018-10-06T12:53:14.976Z,24.57
2018-10-06T12:55:07.971Z,24.51
2018-10-06T12:56:08.037Z,24.55
2018-10-06T12:58:01.036Z,24.54
2018-10-06T12:59:01.097Z,24.53
2018-10-06T13:00:54.104Z,24.55
2018-10-06T13:01:54.168Z,24.63
2018-10-06T13:03:47.169Z,24.69
2018-10-06T13:04:47.228Z,24.69
2018-10-06T13:06:40.231Z,24.53
2018-10-06T13:07:40.295Z,24.58
2018-10-06T13:09:33.315Z,24.53
2018-10-06T13:10:33.399Z,24.57
2018-10-06T13:12:26.383Z,24.50
2018-10-06T13:13:26.441Z,24.51
2018-10-06T13:15:19.445Z,24.36
2018-10-06T13:16:19.512Z,24.24
2018-10-06T13:18:12.513Z,24.35
2018-10-06T13:19:12.578Z,24.36
2018-10-06T13:21:05.567Z,24.26
2018-10-06T13:22:05.634Z,24.24
2018-10-06T13:23:58.642Z,24.06
2018-10-06T13:24:58.700Z,24.11
2018-10-06T13:26:51.699Z,24.08
2018-10-06T13:27:51.767Z,24.08
2018-10-06T13:29:44.775Z,24.11
2018-10-06T13:30:44.837Z,24.16
2018-10-06T13:32:37.893Z,24.10
2018-10-06T13:33:37.904Z,24.03
2018-10-06T13:35:30.913Z,24.11
2018-10-06T13:36:30.969Z,24.24
2018-10-06T13:38:23.973Z,24.20
2018-10-06T13:39:24.031Z,24.35
2018-10-06T13:41:17.027Z,24.42
2018-10-06T13:42:17.094Z,24.45
2018-10-06T13:44:10.109Z,24.53
2018-10-06T13:45:10.152Z,24.54
2018-10-06T13:47:03.161Z,24.45
2018-10-06T13:48:03.225Z,24.35
2018-10-06T13:49:56.227Z,24.36
2018-10-06T13:50:56.286Z,24.35
2018-10-06T13:52:49.280Z,24.33
2018-10-06T13:53:49.344Z,24.51
2018-10-06T13:55:42.357Z,24.48
2018-10-06T13:56:42.416Z,24.63
2018-10-06T13:58:35.436Z,24.78
2018-10-06T13:59:35.499Z,25.04
2018-10-06T14:01:28.481Z,25.08
2018-10-06T14:02:28.546Z,25.21
2018-10-06T14:04:21.547Z,25.55
2018-10-06T14:05:21.608Z,25.65
2018-10-06T14:07:14.600Z,25.47
2018-10-06T14:08:14.676Z,25.43
2018-10-06T14:10:07.670Z,25.46
2018-10-06T14:11:07.729Z,25.50
2018-10-06T14:13:00.726Z,25.54
2018-10-06T14:14:00.792Z,25.60
2018-10-06T14:15:53.797Z,25.46
2018-10-06T14:16:53.856Z,25.31
2018-10-06T14:18:46.851Z,25.08
2018-10-06T14:19:46.920Z,24.80
2018-10-06T14:21:39.917Z,24.51
2018-10-06T14:22:39.974Z,24.47
2018-10-06T14:24:32.984Z,24.28
2018-10-06T14:25:33.301Z,24.21
2018-10-06T14:27:26.036Z,24.13
2018-10-06T14:28:26.099Z,23.98
2018-10-06T14:30:19.175Z,23.95
2018-10-06T14:31:19.167Z,23.80
2018-10-06T14:33:12.664Z,23.80
2018-10-06T14:34:12.726Z,23.83
2018-10-06T14:36:05.729Z,23.83
2018-10-06T14:37:05.788Z,23.80
2018-10-06T14:38:58.796Z,23.80
2018-10-06T14:41:51.861Z,23.83
2018-10-06T14:42:51.917Z,23.73
2018-10-06T14:44:44.912Z,23.76
2018-10-06T14:45:44.978Z,23.76
2018-10-06T14:47:38.032Z,23.73
2018-10-06T14:48:38.062Z,23.76
2018-10-06T14:50:31.060Z,23.69
2018-10-06T14:51:31.118Z,23.68
2018-10-06T14:53:24.110Z,23.65
2018-10-06T14:54:24.178Z,23.74
2018-10-06T14:56:17.182Z,23.62
2018-10-06T14:57:17.238Z,23.58
2018-10-06T14:59:10.240Z,23.61
2018-10-06T15:00:10.314Z,23.58
2018-10-06T15:02:03.303Z,23.56
2018-10-06T15:03:03.364Z,23.56
2018-10-06T15:04:56.358Z,23.61
2018-10-06T15:05:56.429Z,23.56
2018-10-06T15:07:49.421Z,23.55
2018-10-06T15:08:49.480Z,23.46
2018-10-06T15:10:42.508Z,23.41
2018-10-06T15:11:42.538Z,23.43
2018-10-06T15:13:35.538Z,23.32
2018-10-06T15:14:35.595Z,23.34
2018-10-06T15:16:28.597Z,23.32
2018-10-06T15:17:28.657Z,23.23
2018-10-06T15:19:21.657Z,23.15
2018-10-06T15:20:21.713Z,23.21
2018-10-06T15:22:14.725Z,23.15
2018-10-06T15:23:14.786Z,23.17
2018-10-06T15:25:07.777Z,23.17
2018-10-06T15:26:07.843Z,23.21
2018-10-06T15:28:00.895Z,23.15
2018-10-06T15:29:00.904Z,23.10
2018-10-06T15:30:53.894Z,23.05
2018-10-06T15:31:53.960Z,23.10
2018-10-06T15:33:47.468Z,22.98
2018-10-06T15:34:47.526Z,23.09
2018-10-06T15:36:40.590Z,23.08
2018-10-06T15:37:40.640Z,23.02
2018-10-06T15:39:33.585Z,22.94
2018-10-06T15:40:33.652Z,22.98
2018-10-06T15:42:26.642Z,22.84
2018-10-06T15:43:26.710Z,22.91
2018-10-06T15:45:19.698Z,22.98
2018-10-06T15:46:19.763Z,23.02
2018-10-06T15:48:12.763Z,23.02
2018-10-06T15:49:12.819Z,22.94
2018-10-06T15:51:05.889Z,22.94
2018-10-06T15:52:05.877Z,22.98
2018-10-06T15:53:58.886Z,22.91
2018-10-06T15:54:58.944Z,22.98
2018-10-06T15:56:52.036Z,22.91
2018-10-06T15:57:52.003Z,22.91
2018-10-06T15:59:45.002Z,22.78
2018-10-06T16:00:45.135Z,22.78
2018-10-06T16:02:38.126Z,22.69
2018-10-06T16:03:38.115Z,22.72
2018-10-06T16:05:31.107Z,22.63
2018-10-06T16:06:31.174Z,22.59
2018-10-06T16:08:24.174Z,22.55
2018-10-06T16:09:24.234Z,22.55
2018-10-06T16:11:17.224Z,22.39
2018-10-06T16:12:17.319Z,22.41
2018-10-06T16:14:10.292Z,22.38
2018-10-06T16:15:10.347Z,22.30
2018-10-06T16:17:03.341Z,22.13
2018-10-06T16:18:03.406Z,22.14
2018-10-06T16:19:56.406Z,22.17
2018-10-06T16:20:56.464Z,22.04
2018-10-06T16:22:49.454Z,21.96
2018-10-06T16:23:49.520Z,21.88
2018-10-06T16:25:42.525Z,21.80
2018-10-06T16:26:42.590Z,21.79
2018-10-06T16:28:35.585Z,21.64
2018-10-06T16:29:35.641Z,21.64
2018-10-06T16:31:28.633Z,21.51
2018-10-06T16:32:28.699Z,21.48
2018-10-06T16:34:21.701Z,21.42
2018-10-06T16:35:21.760Z,21.30
2018-10-06T16:37:14.747Z,21.20
2018-10-06T16:38:14.814Z,21.17
2018-10-06T16:40:07.813Z,21.15
2018-10-06T16:41:07.883Z,21.12
2018-10-06T16:43:00.872Z,21.12
2018-10-06T16:44:01.045Z,21.07
2018-10-06T16:45:53.934Z,20.96
2018-10-06T16:46:53.990Z,21.00
2018-10-06T16:48:46.988Z,21.00
2018-10-06T16:49:47.048Z,20.85
2018-10-06T16:51:40.048Z,20.85
2018-10-06T16:52:40.108Z,20.72
2018-10-06T16:54:33.106Z,20.60
2018-10-06T16:55:33.166Z,20.60
2018-10-06T16:57:26.160Z,20.40
2018-10-06T16:58:26.224Z,20.28
2018-10-06T17:00:19.295Z,20.39
2018-10-06T17:01:19.280Z,20.37
2018-10-06T17:03:12.272Z,20.14
2018-10-06T17:04:12.340Z,20.16
2018-10-06T17:06:05.337Z,20.03
2018-10-06T17:07:05.396Z,20.02
2018-10-06T17:08:58.437Z,20.00
2018-10-06T17:09:58.451Z,20.02
2018-10-06T17:11:51.451Z,19.91
2018-10-06T17:12:51.618Z,19.96
2018-10-06T17:14:44.508Z,19.81
2018-10-06T17:15:44.569Z,19.85
2018-10-06T17:17:37.569Z,19.71
2018-10-06T17:18:37.691Z,19.66
2018-10-06T17:20:30.631Z,19.59
2018-10-06T17:21:30.699Z,19.51
2018-10-06T17:23:23.692Z,19.39
2018-10-06T17:24:23.813Z,19.31
2018-10-06T17:26:16.738Z,19.27
2018-10-06T17:27:16.836Z,19.21
2018-10-06T17:29:09.787Z,19.11
2018-10-06T17:30:09.853Z,19.12
2018-10-06T17:32:02.862Z,19.09
2018-10-06T17:33:02.913Z,18.98
2018-10-06T17:34:55.907Z,19.02
2018-10-06T17:35:55.979Z,18.92
2018-10-06T17:37:48.974Z,18.86
2018-10-06T17:38:49.055Z,18.86
2018-10-06T17:40:42.085Z,18.81
2018-10-06T17:41:42.169Z,18.75
2018-10-06T17:43:35.143Z,18.70
2018-10-06T17:44:35.202Z,18.68
2018-10-06T17:46:28.191Z,18.59
2018-10-06T17:47:28.277Z,18.58
2018-10-06T17:49:21.245Z,18.58
2018-10-06T17:50:21.386Z,18.50
2018-10-06T17:52:14.305Z,18.59
2018-10-06T17:53:14.362Z,18.59
2018-10-06T17:55:07.353Z,18.49
2018-10-06T17:56:07.417Z,18.55
2018-10-06T17:58:00.420Z,18.41
2018-10-06T17:59:00.555Z,18.35
2018-10-06T18:00:53.473Z,18.33
2018-10-06T18:01:53.543Z,18.23
2018-10-06T18:03:46.546Z,18.28
2018-10-06T18:04:46.634Z,18.19
2018-10-06T18:06:39.581Z,18.16
2018-10-06T18:07:39.646Z,18.10
2018-10-06T18:09:32.645Z,18.13
2018-10-06T18:10:32.703Z,18.03
2018-10-06T18:12:25.703Z,18.07
2018-10-06T18:13:25.766Z,18.04
2018-10-06T18:15:18.760Z,18.16
2018-10-06T18:16:18.825Z,18.07
2018-10-06T18:18:11.817Z,18.15
2018-10-06T18:19:11.874Z,18.13
2018-10-06T18:21:04.948Z,18.05
2018-10-06T18:22:04.933Z,18.01
2018-10-06T18:23:57.930Z,17.98
2018-10-06T18:24:57.987Z,17.92
2018-10-06T18:26:50.977Z,17.86
2018-10-06T18:27:51.041Z,17.90
2018-10-06T18:29:44.118Z,17.90
2018-10-06T18:30:44.093Z,17.95
2018-10-06T18:32:37.091Z,17.95
2018-10-06T18:33:37.194Z,17.92
2018-10-06T18:35:30.156Z,17.85
2018-10-06T18:36:30.281Z,17.67
2018-10-06T18:38:23.215Z,17.60
2018-10-06T18:39:23.268Z,17.64
2018-10-06T18:41:16.280Z,17.67
2018-10-06T18:42:16.345Z,17.63
2018-10-06T18:44:09.342Z,17.67